sensor_id;sensor_type;location;lat;lon;timestamp;temperature;humidity
21551;DHT22;10936;49.836;7.078;2023-02-20T06:01:56;5.10;99.90
21551;DHT22;10936;49.836;7.078;2023-02-20T06:04:22;5.10;99.90
21551;DHT22;10936;49.836;7.078;2023-02-20T06:06:47;5.10;99.90
21551;DHT22;10936;49.836;7.078;2023-02-20T06:09:13;5.20;99.90
21551;DHT22;10936;49.836;7.078;2023-02-20T06:11:50;5.20;99.90
21551;DHT22;10936;49.836;7.078;2023-02-20T06:14:17;5.20;99.90
21551;DHT22;10936;49.836;7.078;2023-02-20T06:16:43;5.30;99.90
21551;DHT22;10936;49.836;7.078;2023-02-20T06:19:09;5.30;99.90
21551;DHT22;10936;49.836;7.078;2023-02-20T06:21:35;5.30;99.90
21551;DHT22;10936;49.836;7.078;2023-02-20T06:24:02;5.40;99.90
21551;DHT22;10936;49.836;7.078;2023-02-20T06:26:27;5.40;99.90
21551;DHT22;10936;49.836;7.078;2023-02-20T06:28:53;5.50;99.90
21551;DHT22;10936;49.836;7.078;2023-02-20T06:31:24;5.50;99.90
21551;DHT22;10936;49.836;7.078;2023-02-20T06:33:50;5.60;99.90
21551;DHT22;10936;49.836;7.078;2023-02-20T06:36:30;5.60;99.90
21551;DHT22;10936;49.836;7.078;2023-02-20T06:38:57;5.60;99.90
21551;DHT22;10936;49.836;7.078;2023-02-20T06:41:23;5.70;99.90
21551;DHT22;10936;49.836;7.078;2023-02-20T06:43:49;5.70;99.90
21551;DHT22;10936;49.836;7.078;2023-02-20T06:46:14;5.70;99.90
21551;DHT22;10936;49.836;7.078;2023-02-20T06:48:48;5.80;99.90
21551;DHT22;10936;49.836;7.078;2023-02-20T06:51:23;5.70;99.90
21551;DHT22;10936;49.836;7.078;2023-02-20T06:53:49;5.80;99.90
21551;DHT22;10936;49.836;7.078;2023-02-20T06:56:17;5.80;99.90
21551;DHT22;10936;49.836;7.078;2023-02-20T06:58:48;5.70;99.90
21551;DHT22;10936;49.836;7.078;2023-02-20T07:01:16;5.70;99.90
21551;DHT22;10936;49.836;7.078;2023-02-20T07:03:42;5.70;99.90
21551;DHT22;10936;49.836;7.078;2023-02-20T07:06:09;5.70;99.90
21551;DHT22;10936;49.836;7.078;2023-02-20T07:08:35;5.60;99.90
21551;DHT22;10936;49.836;7.078;2023-02-20T07:11:01;5.70;99.90
21551;DHT22;10936;49.836;7.078;2023-02-20T07:13:27;5.70;99.90
21551;DHT22;10936;49.836;7.078;2023-02-20T07:15:52;5.70;99.90
21551;DHT22;10936;49.836;7.078;2023-02-20T07:18:18;5.70;99.90
21551;DHT22;10936;49.836;7.078;2023-02-20T07:20:50;5.70;99.90
21551;DHT22;10936;49.836;7.078;2023-02-20T07:23:16;5.80;99.90
21551;DHT22;10936;49.836;7.078;2023-02-20T07:25:43;5.80;99.90
21551;DHT22;10936;49.836;7.078;2023-02-20T07:28:09;5.80;99.90
21551;DHT22;10936;49.836;7.078;2023-02-20T07:30:35;5.80;99.90
21551;DHT22;10936;49.836;7.078;2023-02-20T07:33:00;5.80;99.90
21551;DHT22;10936;49.836;7.078;2023-02-20T07:35:26;5.90;99.90
21551;DHT22;10936;49.836;7.078;2023-02-20T07:37:52;5.80;99.90
21551;DHT22;10936;49.836;7.078;2023-02-20T07:40:18;5.80;99.90
21551;DHT22;10936;49.836;7.078;2023-02-20T07:42:47;5.80;99.90
21551;DHT22;10936;49.836;7.078;2023-02-20T07:45:13;5.80;99.90
21551;DHT22;10936;49.836;7.078;2023-02-20T07:47:39;5.90;99.90
21551;DHT22;10936;49.836;7.078;2023-02-20T07:50:06;5.80;99.90
21551;DHT22;10936;49.836;7.078;2023-02-20T07:52:32;6.00;99.90
21551;DHT22;10936;49.836;7.078;2023-02-20T07:54:58;6.30;99.90
21551;DHT22;10936;49.836;7.078;2023-02-20T07:57:28;6.60;99.90
21551;DHT22;10936;49.836;7.078;2023-02-20T07:59:55;6.50;99.90
21551;DHT22;10936;49.836;7.078;2023-02-20T08:02:21;6.40;99.90
21551;DHT22;10936;49.836;7.078;2023-02-20T08:04:47;6.30;99.90
21551;DHT22;10936;49.836;7.078;2023-02-20T08:07:16;6.20;99.90
21551;DHT22;10936;49.836;7.078;2023-02-20T08:09:43;6.10;99.90
21551;DHT22;10936;49.836;7.078;2023-02-20T08:12:10;6.10;99.90
21551;DHT22;10936;49.836;7.078;2023-02-20T08:14:36;6.20;99.90
21551;DHT22;10936;49.836;7.078;2023-02-20T08:17:05;6.10;99.90
21551;DHT22;10936;49.836;7.078;2023-02-20T08:19:32;6.10;99.90
21551;DHT22;10936;49.836;7.078;2023-02-20T08:22:01;6.10;99.90
21551;DHT22;10936;49.836;7.078;2023-02-20T08:24:29;6.10;99.90
21551;DHT22;10936;49.836;7.078;2023-02-20T08:26:56;6.20;99.90
21551;DHT22;10936;49.836;7.078;2023-02-20T08:29:27;6.30;99.90
21551;DHT22;10936;49.836;7.078;2023-02-20T08:31:53;6.40;99.90
21551;DHT22;10936;49.836;7.078;2023-02-20T08:34:21;6.50;99.90
21551;DHT22;10936;49.836;7.078;2023-02-20T08:36:47;6.40;99.90
21551;DHT22;10936;49.836;7.078;2023-02-20T08:39:13;6.40;99.90
21551;DHT22;10936;49.836;7.078;2023-02-20T08:41:45;6.40;99.90
21551;DHT22;10936;49.836;7.078;2023-02-20T08:44:13;6.80;99.90
21551;DHT22;10936;49.836;7.078;2023-02-20T08:46:50;7.00;99.90
21551;DHT22;10936;49.836;7.078;2023-02-20T08:49:16;7.30;99.90
21551;DHT22;10936;49.836;7.078;2023-02-20T08:51:46;7.40;99.90
21551;DHT22;10936;49.836;7.078;2023-02-20T08:54:16;8.00;99.90
21551;DHT22;10936;49.836;7.078;2023-02-20T08:56:42;8.30;99.90
21551;DHT22;10936;49.836;7.078;2023-02-20T08:59:08;8.90;99.90
21551;DHT22;10936;49.836;7.078;2023-02-20T09:01:42;9.20;99.90
21551;DHT22;10936;49.836;7.078;2023-02-20T09:04:09;9.50;99.90
21551;DHT22;10936;49.836;7.078;2023-02-20T09:06:36;9.30;99.90
21551;DHT22;10936;49.836;7.078;2023-02-20T09:09:02;9.40;99.90
21551;DHT22;10936;49.836;7.078;2023-02-20T09:11:29;9.80;99.90
21551;DHT22;10936;49.836;7.078;2023-02-20T09:13:55;9.80;99.90
21551;DHT22;10936;49.836;7.078;2023-02-20T09:16:24;9.90;99.90
21551;DHT22;10936;49.836;7.078;2023-02-20T09:18:50;10.30;99.90
21551;DHT22;10936;49.836;7.078;2023-02-20T09:21:17;11.70;99.90
21551;DHT22;10936;49.836;7.078;2023-02-20T09:23:44;11.80;99.90
21551;DHT22;10936;49.836;7.078;2023-02-20T09:26:15;12.00;99.90
21551;DHT22;10936;49.836;7.078;2023-02-20T09:28:41;12.90;99.90
21551;DHT22;10936;49.836;7.078;2023-02-20T09:31:07;12.70;99.90
21551;DHT22;10936;49.836;7.078;2023-02-20T09:33:34;11.80;99.90
21551;DHT22;10936;49.836;7.078;2023-02-20T09:36:00;11.30;99.90
21551;DHT22;10936;49.836;7.078;2023-02-20T09:38:26;10.90;99.90
21551;DHT22;10936;49.836;7.078;2023-02-20T09:40:58;10.70;99.90
21551;DHT22;10936;49.836;7.078;2023-02-20T09:43:44;11.40;99.90
21551;DHT22;10936;49.836;7.078;2023-02-20T09:46:15;11.80;99.90
21551;DHT22;10936;49.836;7.078;2023-02-20T09:51:29;12.00;99.90
21551;DHT22;10936;49.836;7.078;2023-02-20T09:54:15;11.30;99.90
21551;DHT22;10936;49.836;7.078;2023-02-20T09:56:51;10.90;99.90
21551;DHT22;10936;49.836;7.078;2023-02-20T09:59:24;11.40;99.90
21551;DHT22;10936;49.836;7.078;2023-02-20T10:02:11;12.50;99.90
21551;DHT22;10936;49.836;7.078;2023-02-20T10:04:46;12.10;99.90
21551;DHT22;10936;49.836;7.078;2023-02-20T10:09:53;16.30;99.90
21551;DHT22;10936;49.836;7.078;2023-02-20T10:12:40;15.70;99.90
21551;DHT22;10936;49.836;7.078;2023-02-20T10:18:13;12.60;99.90
21551;DHT22;10936;49.836;7.078;2023-02-20T10:24:45;12.00;99.90
21551;DHT22;10936;49.836;7.078;2023-02-20T10:29:55;11.30;99.90
21551;DHT22;10936;49.836;7.078;2023-02-20T10:32:31;11.80;99.90
21551;DHT22;10936;49.836;7.078;2023-02-20T10:35:17;10.90;99.90
21551;DHT22;10936;49.836;7.078;2023-02-20T10:37:56;10.80;99.90
21551;DHT22;10936;49.836;7.078;2023-02-20T10:40:39;10.50;99.90
21551;DHT22;10936;49.836;7.078;2023-02-20T10:43:24;11.60;99.90
21551;DHT22;10936;49.836;7.078;2023-02-20T10:46:11;13.20;99.90
21551;DHT22;10936;49.836;7.078;2023-02-20T10:48:40;12.10;99.90
21551;DHT22;10936;49.836;7.078;2023-02-20T10:51:12;11.20;99.90
21551;DHT22;10936;49.836;7.078;2023-02-20T10:53:49;13.30;99.90
21551;DHT22;10936;49.836;7.078;2023-02-20T10:56:33;14.70;99.90
21551;DHT22;10936;49.836;7.078;2023-02-20T10:59:21;15.60;99.90
21551;DHT22;10936;49.836;7.078;2023-02-20T11:01:53;17.60;99.90
21551;DHT22;10936;49.836;7.078;2023-02-20T11:04:29;17.20;99.90
21551;DHT22;10936;49.836;7.078;2023-02-20T11:07:09;17.40;99.90
21551;DHT22;10936;49.836;7.078;2023-02-20T11:09:36;18.60;99.90
21551;DHT22;10936;49.836;7.078;2023-02-20T11:12:02;19.10;99.90
21551;DHT22;10936;49.836;7.078;2023-02-20T11:14:33;19.50;99.90
21551;DHT22;10936;49.836;7.078;2023-02-20T11:17:09;19.40;99.90
21551;DHT22;10936;49.836;7.078;2023-02-20T11:22:12;20.00;99.90
21551;DHT22;10936;49.836;7.078;2023-02-20T11:24:45;20.40;99.90
21551;DHT22;10936;49.836;7.078;2023-02-20T11:27:21;20.60;99.90
21551;DHT22;10936;49.836;7.078;2023-02-20T11:30:11;20.60;99.90
21551;DHT22;10936;49.836;7.078;2023-02-20T11:32:42;20.10;99.90
21551;DHT22;10936;49.836;7.078;2023-02-20T11:37:50;19.60;99.90
21551;DHT22;10936;49.836;7.078;2023-02-20T11:40:28;19.40;99.90
21551;DHT22;10936;49.836;7.078;2023-02-20T11:42:56;19.90;99.90
21551;DHT22;10936;49.836;7.078;2023-02-20T11:45:34;19.80;99.90
21551;DHT22;10936;49.836;7.078;2023-02-20T11:48:15;19.30;99.90
21551;DHT22;10936;49.836;7.078;2023-02-20T11:50:42;19.40;99.90
21551;DHT22;10936;49.836;7.078;2023-02-20T11:53:24;19.60;99.90
21551;DHT22;10936;49.836;7.078;2023-02-20T11:58:32;19.40;99.90
21551;DHT22;10936;49.836;7.078;2023-02-20T12:00:58;19.60;99.90
21551;DHT22;10936;49.836;7.078;2023-02-20T12:03:31;18.80;99.90
21551;DHT22;10936;49.836;7.078;2023-02-20T12:06:45;19.20;99.90
21551;DHT22;10936;49.836;7.078;2023-02-20T12:08:55;20.50;99.90
21551;DHT22;10936;49.836;7.078;2023-02-20T12:11:24;21.10;99.90
21551;DHT22;10936;49.836;7.078;2023-02-20T12:13:56;21.00;99.90
21551;DHT22;10936;49.836;7.078;2023-02-20T12:16:54;21.20;99.90
21551;DHT22;10936;49.836;7.078;2023-02-20T12:19:38;21.30;99.90
21551;DHT22;10936;49.836;7.078;2023-02-20T12:22:42;20.80;99.90
21551;DHT22;10936;49.836;7.078;2023-02-20T12:25:26;20.60;99.90
21551;DHT22;10936;49.836;7.078;2023-02-20T12:28:08;20.00;99.90
21551;DHT22;10936;49.836;7.078;2023-02-20T12:39:29;18.70;99.90
21551;DHT22;10936;49.836;7.078;2023-02-20T12:42:30;17.00;99.90
21551;DHT22;10936;49.836;7.078;2023-02-20T12:48:31;13.40;99.90
21551;DHT22;10936;49.836;7.078;2023-02-20T12:54:19;12.00;99.90
21551;DHT22;10936;49.836;7.078;2023-02-20T12:59:57;11.40;99.90
21551;DHT22;10936;49.836;7.078;2023-02-20T13:02:26;11.20;99.90
21551;DHT22;10936;49.836;7.078;2023-02-20T13:04:56;11.10;99.90
21551;DHT22;10936;49.836;7.078;2023-02-20T13:07:35;11.00;99.90
21551;DHT22;10936;49.836;7.078;2023-02-20T13:10:12;10.90;99.90
21551;DHT22;10936;49.836;7.078;2023-02-20T13:12:41;10.90;99.90
21551;DHT22;10936;49.836;7.078;2023-02-20T13:21:18;10.70;99.90
21551;DHT22;10936;49.836;7.078;2023-02-20T13:23:45;10.70;99.90
21551;DHT22;10936;49.836;7.078;2023-02-20T13:29:19;10.90;99.90
21551;DHT22;10936;49.836;7.078;2023-02-20T13:34:44;10.70;99.90
21551;DHT22;10936;49.836;7.078;2023-02-20T13:45:45;10.80;99.90
21551;DHT22;10936;49.836;7.078;2023-02-20T13:53:41;10.60;99.90
21551;DHT22;10936;49.836;7.078;2023-02-20T13:56:23;10.70;99.90
21551;DHT22;10936;49.836;7.078;2023-02-20T13:58:50;10.80;99.90
21551;DHT22;10936;49.836;7.078;2023-02-20T14:01:16;10.90;99.90
21551;DHT22;10936;49.836;7.078;2023-02-20T14:03:42;10.90;99.90
21551;DHT22;10936;49.836;7.078;2023-02-20T14:06:16;10.90;99.90
21551;DHT22;10936;49.836;7.078;2023-02-20T14:09:10;10.90;99.90
21551;DHT22;10936;49.836;7.078;2023-02-20T14:11:46;10.90;99.90
21551;DHT22;10936;49.836;7.078;2023-02-20T14:14:33;10.80;99.90
21551;DHT22;10936;49.836;7.078;2023-02-20T14:17:05;10.80;99.90
21551;DHT22;10936;49.836;7.078;2023-02-20T14:19:40;10.80;99.90
21551;DHT22;10936;49.836;7.078;2023-02-20T14:24:39;10.80;99.90
21551;DHT22;10936;49.836;7.078;2023-02-20T14:27:25;10.80;99.90
21551;DHT22;10936;49.836;7.078;2023-02-20T14:32:45;10.90;99.90
21551;DHT22;10936;49.836;7.078;2023-02-20T14:40:58;10.90;99.90
21551;DHT22;10936;49.836;7.078;2023-02-20T14:43:32;10.90;99.90
21551;DHT22;10936;49.836;7.078;2023-02-20T14:46:20;10.80;99.90
21551;DHT22;10936;49.836;7.078;2023-02-20T14:49:04;10.80;99.90
21551;DHT22;10936;49.836;7.078;2023-02-20T14:51:31;10.80;99.90
21551;DHT22;10936;49.836;7.078;2023-02-20T14:54:19;10.70;99.90
21551;DHT22;10936;49.836;7.078;2023-02-20T14:56:47;10.80;99.90
21551;DHT22;10936;49.836;7.078;2023-02-20T14:59:36;10.70;99.90
21551;DHT22;10936;49.836;7.078;2023-02-20T15:04:34;10.70;99.90
21551;DHT22;10936;49.836;7.078;2023-02-20T15:07:03;10.70;99.90
21551;DHT22;10936;49.836;7.078;2023-02-20T15:09:40;10.60;99.90
21551;DHT22;10936;49.836;7.078;2023-02-20T15:12:07;10.60;99.90
21551;DHT22;10936;49.836;7.078;2023-02-20T15:14:43;10.50;99.90
21551;DHT22;10936;49.836;7.078;2023-02-20T15:17:30;10.50;99.90
21551;DHT22;10936;49.836;7.078;2023-02-20T15:19:56;10.50;99.90
21551;DHT22;10936;49.836;7.078;2023-02-20T15:22:29;10.50;99.90
21551;DHT22;10936;49.836;7.078;2023-02-20T15:27:40;10.40;99.90
21551;DHT22;10936;49.836;7.078;2023-02-20T15:30:25;10.40;99.90
21551;DHT22;10936;49.836;7.078;2023-02-20T15:32:52;10.30;99.90
21551;DHT22;10936;49.836;7.078;2023-02-20T15:35:21;10.30;99.90
21551;DHT22;10936;49.836;7.078;2023-02-20T15:37:55;10.20;99.90
21551;DHT22;10936;49.836;7.078;2023-02-20T15:40:25;10.20;99.90
21551;DHT22;10936;49.836;7.078;2023-02-20T15:42:53;10.20;99.90
21551;DHT22;10936;49.836;7.078;2023-02-20T15:45:24;10.20;99.90
21551;DHT22;10936;49.836;7.078;2023-02-20T15:48:02;10.10;99.90
21551;DHT22;10936;49.836;7.078;2023-02-20T15:50:28;10.00;99.90
21551;DHT22;10936;49.836;7.078;2023-02-20T15:52:56;9.90;99.90
21551;DHT22;10936;49.836;7.078;2023-02-20T15:55:28;9.90;99.90
21551;DHT22;10936;49.836;7.078;2023-02-20T15:57:59;9.90;99.90
21551;DHT22;10936;49.836;7.078;2023-02-20T16:00:27;9.80;99.90
21551;DHT22;10936;49.836;7.078;2023-02-20T16:02:55;9.70;99.90
21551;DHT22;10936;49.836;7.078;2023-02-20T16:05:21;9.70;99.90
21551;DHT22;10936;49.836;7.078;2023-02-20T16:07:49;9.60;99.90
21551;DHT22;10936;49.836;7.078;2023-02-20T16:10:18;9.50;99.90
21551;DHT22;10936;49.836;7.078;2023-02-20T16:12:44;9.50;99.90
21551;DHT22;10936;49.836;7.078;2023-02-20T16:15:17;9.40;99.90
21551;DHT22;10936;49.836;7.078;2023-02-20T16:17:48;9.30;99.90
21551;DHT22;10936;49.836;7.078;2023-02-20T16:20:17;9.20;99.90
21551;DHT22;10936;49.836;7.078;2023-02-20T16:22:43;9.10;99.90
21551;DHT22;10936;49.836;7.078;2023-02-20T16:25:11;9.00;99.90
21551;DHT22;10936;49.836;7.078;2023-02-20T16:27:44;8.90;99.90
21551;DHT22;10936;49.836;7.078;2023-02-20T16:30:22;8.90;99.90
21551;DHT22;10936;49.836;7.078;2023-02-20T16:35:38;8.90;99.90
21551;DHT22;10936;49.836;7.078;2023-02-20T16:38:17;8.80;99.90
21551;DHT22;10936;49.836;7.078;2023-02-20T16:41:28;8.70;99.90
21551;DHT22;10936;49.836;7.078;2023-02-20T16:43:36;8.60;99.90
21551;DHT22;10936;49.836;7.078;2023-02-20T16:46:06;8.50;99.90
21551;DHT22;10936;49.836;7.078;2023-02-20T16:48:36;8.40;99.90
21551;DHT22;10936;49.836;7.078;2023-02-20T16:51:02;8.30;99.90
21551;DHT22;10936;49.836;7.078;2023-02-20T16:53:34;8.20;99.90
21551;DHT22;10936;49.836;7.078;2023-02-20T16:56:01;8.10;99.90
21551;DHT22;10936;49.836;7.078;2023-02-20T16:58:32;8.00;99.90
21551;DHT22;10936;49.836;7.078;2023-02-20T17:01:00;7.90;99.90
21551;DHT22;10936;49.836;7.078;2023-02-20T17:03:26;7.80;99.90
21551;DHT22;10936;49.836;7.078;2023-02-20T17:05:57;7.80;99.90
21551;DHT22;10936;49.836;7.078;2023-02-20T17:08:25;7.60;99.90
21551;DHT22;10936;49.836;7.078;2023-02-20T17:10:52;7.60;99.90
21551;DHT22;10936;49.836;7.078;2023-02-20T17:13:18;7.60;99.90
21551;DHT22;10936;49.836;7.078;2023-02-20T17:15:45;7.60;99.90
21551;DHT22;10936;49.836;7.078;2023-02-20T17:18:13;7.60;99.90
21551;DHT22;10936;49.836;7.078;2023-02-20T17:20:39;7.50;99.90
21551;DHT22;10936;49.836;7.078;2023-02-20T17:23:05;7.50;99.90
21551;DHT22;10936;49.836;7.078;2023-02-20T17:25:32;7.40;99.90
21551;DHT22;10936;49.836;7.078;2023-02-20T17:28:02;7.30;99.90
21551;DHT22;10936;49.836;7.078;2023-02-20T17:30:28;7.20;99.90
21551;DHT22;10936;49.836;7.078;2023-02-20T17:32:54;7.20;99.90
21551;DHT22;10936;49.836;7.078;2023-02-20T17:35:20;7.10;99.90
21551;DHT22;10936;49.836;7.078;2023-02-20T17:37:48;7.00;99.90
21551;DHT22;10936;49.836;7.078;2023-02-20T17:40:15;6.90;99.90
21551;DHT22;10936;49.836;7.078;2023-02-20T17:42:43;6.70;99.90
21551;DHT22;10936;49.836;7.078;2023-02-20T17:45:10;6.50;99.90
21551;DHT22;10936;49.836;7.078;2023-02-20T17:47:35;6.30;99.90
21551;DHT22;10936;49.836;7.078;2023-02-20T17:50:06;6.20;99.90
21551;DHT22;10936;49.836;7.078;2023-02-20T17:52:32;6.10;99.90
21551;DHT22;10936;49.836;7.078;2023-02-20T17:55:00;6.00;99.90
21551;DHT22;10936;49.836;7.078;2023-02-20T17:57:25;6.00;99.90
21551;DHT22;10936;49.836;7.078;2023-02-20T17:59:53;5.90;99.90
21551;DHT22;10936;49.836;7.078;2023-02-20T18:02:19;5.90;99.90
21551;DHT22;10936;49.836;7.078;2023-02-20T18:04:46;5.80;99.90
21551;DHT22;10936;49.836;7.078;2023-02-20T18:07:17;5.80;99.90
21551;DHT22;10936;49.836;7.078;2023-02-20T18:09:43;5.70;99.90
21551;DHT22;10936;49.836;7.078;2023-02-20T18:12:12;5.70;99.90
21551;DHT22;10936;49.836;7.078;2023-02-20T18:14:38;5.60;99.90
21551;DHT22;10936;49.836;7.078;2023-02-20T18:17:04;5.40;99.90
21551;DHT22;10936;49.836;7.078;2023-02-20T18:19:33;5.40;99.90
21551;DHT22;10936;49.836;7.078;2023-02-20T18:22:00;5.30;99.90
21551;DHT22;10936;49.836;7.078;2023-02-20T18:24:25;5.30;99.90
21551;DHT22;10936;49.836;7.078;2023-02-20T18:26:53;5.40;99.90
21551;DHT22;10936;49.836;7.078;2023-02-20T18:29:20;5.40;99.90
21551;DHT22;10936;49.836;7.078;2023-02-20T18:31:47;5.40;99.90
21551;DHT22;10936;49.836;7.078;2023-02-20T18:34:14;5.50;99.90
21551;DHT22;10936;49.836;7.078;2023-02-20T18:36:41;5.60;99.90
21551;DHT22;10936;49.836;7.078;2023-02-20T18:39:08;5.60;99.90
21551;DHT22;10936;49.836;7.078;2023-02-20T18:41:39;5.50;99.90
21551;DHT22;10936;49.836;7.078;2023-02-20T18:44:07;5.50;99.90
21551;DHT22;10936;49.836;7.078;2023-02-20T18:46:35;5.40;99.90
21551;DHT22;10936;49.836;7.078;2023-02-20T18:49:05;5.40;99.90
21551;DHT22;10936;49.836;7.078;2023-02-20T18:51:39;5.40;99.90
21551;DHT22;10936;49.836;7.078;2023-02-20T18:54:09;5.40;99.90
21551;DHT22;10936;49.836;7.078;2023-02-20T18:56:36;5.40;99.90
21551;DHT22;10936;49.836;7.078;2023-02-20T18:59:03;5.40;99.90
21551;DHT22;10936;49.836;7.078;2023-02-20T19:01:30;5.40;99.90
21551;DHT22;10936;49.836;7.078;2023-02-20T19:03:58;5.30;99.90
21551;DHT22;10936;49.836;7.078;2023-02-20T19:06:32;5.30;99.90
21551;DHT22;10936;49.836;7.078;2023-02-20T19:09:06;5.20;99.90
21551;DHT22;10936;49.836;7.078;2023-02-20T19:11:32;5.20;99.90
21551;DHT22;10936;49.836;7.078;2023-02-20T19:13:59;5.20;99.90
21551;DHT22;10936;49.836;7.078;2023-02-20T19:16:25;5.20;99.90
21551;DHT22;10936;49.836;7.078;2023-02-20T19:18:57;5.30;99.90
21551;DHT22;10936;49.836;7.078;2023-02-20T19:21:29;5.40;99.90
21551;DHT22;10936;49.836;7.078;2023-02-20T19:23:55;5.50;99.90
21551;DHT22;10936;49.836;7.078;2023-02-20T19:26:27;5.60;99.90
21551;DHT22;10936;49.836;7.078;2023-02-20T19:28:56;5.60;99.90
21551;DHT22;10936;49.836;7.078;2023-02-20T19:31:31;5.70;99.90
21551;DHT22;10936;49.836;7.078;2023-02-20T19:33:57;5.80;99.90
21551;DHT22;10936;49.836;7.078;2023-02-20T19:36:40;5.80;99.90
21551;DHT22;10936;49.836;7.078;2023-02-20T19:39:10;5.90;99.90
21551;DHT22;10936;49.836;7.078;2023-02-20T19:41:40;5.90;99.90
21551;DHT22;10936;49.836;7.078;2023-02-20T19:44:06;5.90;99.90
21551;DHT22;10936;49.836;7.078;2023-02-20T19:46:35;6.00;99.90
21551;DHT22;10936;49.836;7.078;2023-02-20T19:49:05;6.00;99.90
21551;DHT22;10936;49.836;7.078;2023-02-20T19:51:34;6.00;99.90
21551;DHT22;10936;49.836;7.078;2023-02-20T19:54:06;6.00;99.90
21551;DHT22;10936;49.836;7.078;2023-02-20T19:56:31;5.90;99.90
21551;DHT22;10936;49.836;7.078;2023-02-20T19:58:57;5.90;99.90
21551;DHT22;10936;49.836;7.078;2023-02-20T20:01:22;5.90;99.90
21551;DHT22;10936;49.836;7.078;2023-02-20T20:03:48;5.80;99.90
21551;DHT22;10936;49.836;7.078;2023-02-20T20:06:15;5.90;99.90
21551;DHT22;10936;49.836;7.078;2023-02-20T20:08:41;5.90;99.90
21551;DHT22;10936;49.836;7.078;2023-02-20T20:11:07;5.90;99.90
21551;DHT22;10936;49.836;7.078;2023-02-20T20:13:33;5.80;99.90
21551;DHT22;10936;49.836;7.078;2023-02-20T20:15:58;5.80;99.90
21551;DHT22;10936;49.836;7.078;2023-02-20T20:18:24;5.70;99.90
21551;DHT22;10936;49.836;7.078;2023-02-20T20:20:50;5.60;99.90
21551;DHT22;10936;49.836;7.078;2023-02-20T20:23:16;5.50;99.90
21551;DHT22;10936;49.836;7.078;2023-02-20T20:25:42;5.60;99.90
21551;DHT22;10936;49.836;7.078;2023-02-20T20:28:07;5.60;99.90
21551;DHT22;10936;49.836;7.078;2023-02-20T20:30:34;5.60;99.90
21551;DHT22;10936;49.836;7.078;2023-02-20T20:33:03;5.60;99.90
21551;DHT22;10936;49.836;7.078;2023-02-20T20:35:29;5.60;99.90
21551;DHT22;10936;49.836;7.078;2023-02-20T20:37:55;5.60;99.90
21551;DHT22;10936;49.836;7.078;2023-02-20T20:40:21;5.60;99.90
21551;DHT22;10936;49.836;7.078;2023-02-20T20:42:47;5.50;99.90
21551;DHT22;10936;49.836;7.078;2023-02-20T20:45:15;5.40;99.90
21551;DHT22;10936;49.836;7.078;2023-02-20T20:47:41;5.30;99.90
21551;DHT22;10936;49.836;7.078;2023-02-20T20:50:10;5.20;99.90
21551;DHT22;10936;49.836;7.078;2023-02-20T20:52:35;5.20;99.90
21551;DHT22;10936;49.836;7.078;2023-02-20T20:55:01;5.20;99.90
21551;DHT22;10936;49.836;7.078;2023-02-20T20:57:30;5.10;99.90
21551;DHT22;10936;49.836;7.078;2023-02-20T20:59:57;5.00;99.90
21551;DHT22;10936;49.836;7.078;2023-02-20T21:02:25;5.00;99.90
21551;DHT22;10936;49.836;7.078;2023-02-20T21:04:51;5.00;99.90
21551;DHT22;10936;49.836;7.078;2023-02-20T21:07:18;5.00;99.90
21551;DHT22;10936;49.836;7.078;2023-02-20T21:09:44;4.90;99.90
21551;DHT22;10936;49.836;7.078;2023-02-20T21:12:11;4.80;99.90
21551;DHT22;10936;49.836;7.078;2023-02-20T21:14:38;4.80;99.90
21551;DHT22;10936;49.836;7.078;2023-02-20T21:17:04;4.80;99.90
21551;DHT22;10936;49.836;7.078;2023-02-20T21:19:30;4.80;99.90
21551;DHT22;10936;49.836;7.078;2023-02-20T21:21:56;4.80;99.90
21551;DHT22;10936;49.836;7.078;2023-02-20T21:24:21;4.90;99.90
21551;DHT22;10936;49.836;7.078;2023-02-20T21:26:47;4.80;99.90
21551;DHT22;10936;49.836;7.078;2023-02-20T21:29:13;4.70;99.90
21551;DHT22;10936;49.836;7.078;2023-02-20T21:31:43;4.60;99.90
21551;DHT22;10936;49.836;7.078;2023-02-20T21:34:09;4.60;99.90
21551;DHT22;10936;49.836;7.078;2023-02-20T21:36:35;4.50;99.90
21551;DHT22;10936;49.836;7.078;2023-02-20T21:39:01;4.50;99.90
21551;DHT22;10936;49.836;7.078;2023-02-20T21:41:26;4.50;99.90
21551;DHT22;10936;49.836;7.078;2023-02-20T21:44:22;4.30;99.90
21551;DHT22;10936;49.836;7.078;2023-02-20T21:47:00;4.20;99.90
21551;DHT22;10936;49.836;7.078;2023-02-20T21:49:27;4.10;99.90
21551;DHT22;10936;49.836;7.078;2023-02-20T21:51:53;4.00;99.90
21551;DHT22;10936;49.836;7.078;2023-02-20T21:54:22;3.90;99.90
21551;DHT22;10936;49.836;7.078;2023-02-20T21:56:48;3.80;99.90
21551;DHT22;10936;49.836;7.078;2023-02-20T21:59:13;3.60;99.90
21551;DHT22;10936;49.836;7.078;2023-02-20T22:01:39;3.50;99.90
21551;DHT22;10936;49.836;7.078;2023-02-20T22:04:06;3.50;99.90
21551;DHT22;10936;49.836;7.078;2023-02-20T22:06:32;3.40;99.90
21551;DHT22;10936;49.836;7.078;2023-02-20T22:08:58;3.40;99.90
21551;DHT22;10936;49.836;7.078;2023-02-20T22:11:42;3.30;99.90
21551;DHT22;10936;49.836;7.078;2023-02-20T22:14:27;3.30;99.90
21551;DHT22;10936;49.836;7.078;2023-02-20T22:17:11;3.10;99.90
21551;DHT22;10936;49.836;7.078;2023-02-20T22:19:56;3.10;99.90
21551;DHT22;10936;49.836;7.078;2023-02-20T22:22:40;3.10;99.90
21551;DHT22;10936;49.836;7.078;2023-02-20T22:25:25;3.20;99.90
21551;DHT22;10936;49.836;7.078;2023-02-20T22:28:10;3.20;99.90
